createdAt,value
2019-03-20T00:00:42.791Z,1.70
2019-03-20T00:03:12.324Z,1.70
2019-03-20T00:05:41.865Z,1.80
2019-03-20T00:08:11.411Z,1.70
2019-03-20T00:10:40.964Z,1.80
2019-03-20T00:13:10.504Z,2.00
2019-03-20T00:15:40.039Z,1.70
2019-03-20T00:18:09.588Z,1.90
2019-03-20T00:20:39.149Z,1.63
2019-03-20T00:23:08.710Z,2.77
2019-03-20T00:25:38.255Z,1.93
2019-03-20T00:28:07.810Z,2.50
2019-03-20T00:30:37.372Z,1.97
2019-03-20T00:33:06.929Z,1.77
2019-03-20T00:35:36.469Z,1.57
2019-03-20T00:38:06.348Z,1.80
2019-03-20T00:40:36.382Z,1.93
2019-03-20T00:43:05.943Z,2.10
2019-03-20T00:45:35.477Z,2.60
2019-03-20T00:48:05.432Z,1.60
2019-03-20T00:50:34.985Z,1.87
2019-03-20T00:53:04.533Z,2.67
2019-03-20T00:55:34.073Z,2.20
2019-03-20T00:58:03.943Z,1.70
2019-03-20T01:00:33.494Z,2.37
2019-03-20T01:03:03.033Z,1.57
2019-03-20T01:05:33.370Z,1.63
2019-03-20T01:08:03.023Z,1.50
2019-03-20T01:10:32.623Z,2.20
2019-03-20T01:13:02.377Z,3.00
2019-03-20T01:15:31.917Z,1.97
2019-03-20T01:18:01.480Z,1.40
2019-03-20T01:20:31.020Z,1.53
2019-03-20T01:23:01.212Z,1.90
2019-03-20T01:25:30.748Z,1.87
2019-03-20T01:28:00.271Z,1.93
2019-03-20T01:30:39.042Z,2.03
2019-03-20T01:33:09.940Z,3.47
2019-03-20T01:35:39.526Z,1.80
2019-03-20T01:38:09.136Z,2.57
2019-03-20T01:40:40.294Z,1.43
2019-03-20T01:43:09.945Z,1.73
2019-03-20T01:45:39.486Z,2.07
2019-03-20T01:48:09.133Z,1.57
2019-03-20T01:50:38.988Z,1.70
2019-03-20T01:53:08.562Z,1.90
2019-03-20T01:55:38.429Z,2.47
2019-03-20T01:58:08.353Z,1.83
2019-03-20T02:00:37.939Z,2.23
2019-03-20T02:03:07.485Z,2.30
2019-03-20T02:05:37.669Z,2.50
2019-03-20T02:08:07.205Z,2.20
2019-03-20T02:10:37.013Z,2.47
2019-03-20T02:13:06.821Z,3.13
2019-03-20T02:15:39.187Z,1.70
2019-03-20T02:18:07.732Z,2.40
2019-03-20T02:20:37.552Z,2.53
2019-03-20T02:23:07.100Z,1.83
2019-03-20T02:25:36.670Z,1.70
2019-03-20T02:28:06.203Z,1.80
2019-03-20T02:30:35.745Z,1.57
2019-03-20T02:33:05.294Z,1.90
2019-03-20T02:35:34.818Z,2.33
2019-03-20T02:38:04.656Z,1.80
2019-03-20T02:40:34.452Z,2.03
2019-03-20T02:43:03.999Z,2.23
2019-03-20T02:45:33.540Z,1.60
2019-03-20T02:48:03.066Z,1.60
2019-03-20T02:50:32.620Z,2.70
2019-03-20T02:53:02.452Z,1.73
2019-03-20T02:55:32.320Z,2.10
2019-03-20T02:58:01.880Z,1.70
2019-03-20T03:00:31.429Z,1.70
2019-03-20T03:03:00.976Z,1.70
2019-03-20T03:05:30.538Z,1.90
2019-03-20T03:08:00.177Z,1.70
2019-03-20T03:10:29.794Z,1.87
2019-03-20T03:12:59.316Z,2.50
2019-03-20T03:15:28.917Z,1.70
2019-03-20T03:17:58.881Z,1.83
2019-03-20T03:20:28.480Z,2.67
2019-03-20T03:22:58.016Z,1.80
2019-03-20T03:25:27.543Z,1.77
2019-03-20T03:27:57.113Z,1.73
2019-03-20T03:30:27.170Z,2.33
2019-03-20T03:32:57.004Z,1.93
2019-03-20T03:35:27.836Z,2.13
2019-03-20T03:37:57.694Z,2.33
2019-03-20T03:40:27.230Z,2.00
2019-03-20T03:42:56.786Z,2.53
2019-03-20T03:45:26.937Z,92.93
2019-03-20T03:47:56.469Z,45.10
2019-03-20T03:50:26.011Z,57.63
2019-03-20T03:52:55.563Z,61.40
2019-03-20T03:55:25.449Z,52.33
2019-03-20T03:57:54.992Z,49.07
2019-03-20T04:00:24.535Z,50.37
2019-03-20T04:02:54.075Z,45.30
2019-03-20T04:05:23.693Z,41.00
2019-03-20T04:07:53.501Z,46.30
2019-03-20T04:10:23.049Z,45.23
2019-03-20T04:12:52.605Z,40.37
2019-03-20T04:15:22.495Z,29.93
2019-03-20T04:17:52.045Z,35.27
2019-03-20T04:20:21.572Z,42.77
2019-03-20T04:22:51.126Z,37.80
2019-03-20T04:25:20.686Z,34.33
2019-03-20T04:27:50.184Z,24.13
2019-03-20T04:30:19.732Z,29.17
2019-03-20T04:32:49.170Z,26.03
2019-03-20T04:35:18.705Z,30.47
2019-03-20T04:37:48.271Z,24.33
2019-03-20T04:40:17.853Z,26.93
2019-03-20T04:42:47.381Z,24.80
2019-03-20T04:45:17.291Z,19.60
2019-03-20T04:47:46.769Z,24.43
2019-03-20T04:50:16.321Z,19.43
2019-03-20T04:52:45.907Z,28.77
2019-03-20T04:55:15.751Z,24.93
2019-03-20T04:57:46.007Z,26.07
2019-03-20T05:00:15.963Z,19.33
2019-03-20T05:02:45.579Z,21.60
2019-03-20T05:05:15.113Z,18.87
2019-03-20T05:07:45.001Z,20.17
2019-03-20T05:10:14.584Z,21.03
2019-03-20T05:12:44.436Z,21.37
2019-03-20T05:15:14.345Z,21.80
2019-03-20T05:17:43.913Z,14.83
2019-03-20T05:20:13.610Z,15.70
2019-03-20T05:22:43.153Z,18.70
2019-03-20T05:25:12.725Z,13.73
2019-03-20T05:27:42.270Z,17.03
2019-03-20T05:30:12.462Z,15.40
2019-03-20T05:32:42.002Z,15.17
2019-03-20T05:35:11.838Z,17.80
2019-03-20T05:37:41.775Z,14.30
2019-03-20T05:40:12.685Z,13.07
2019-03-20T05:42:42.221Z,12.33
2019-03-20T05:45:13.060Z,20.37
2019-03-20T05:47:42.603Z,12.07
2019-03-20T05:50:12.773Z,13.27
2019-03-20T05:52:42.697Z,14.30
2019-03-20T05:55:12.231Z,13.63
2019-03-20T05:57:42.096Z,10.13
2019-03-20T06:00:13.147Z,12.03
2019-03-20T06:02:43.150Z,14.63
2019-03-20T06:05:12.704Z,10.70
2019-03-20T06:07:42.610Z,9.70
2019-03-20T06:10:12.708Z,7.90
2019-03-20T06:12:42.483Z,12.17
2019-03-20T06:15:12.119Z,9.93
2019-03-20T06:17:41.741Z,11.77
2019-03-20T06:20:11.480Z,12.67
2019-03-20T06:22:41.369Z,12.67
2019-03-20T06:25:10.984Z,11.53
2019-03-20T06:27:40.564Z,8.10
2019-03-20T06:30:12.478Z,11.73
2019-03-20T06:32:42.016Z,11.00
2019-03-20T06:35:11.563Z,12.93
2019-03-20T06:37:41.119Z,12.17
2019-03-20T06:40:11.075Z,11.70
2019-03-20T06:42:40.640Z,8.20
2019-03-20T06:45:11.095Z,10.90
2019-03-20T06:47:40.574Z,11.93
2019-03-20T06:50:12.497Z,11.47
2019-03-20T06:52:42.108Z,8.97
2019-03-20T06:55:11.690Z,9.80
2019-03-20T06:57:41.238Z,11.17
2019-03-20T07:00:45.773Z,8.53
2019-03-20T07:03:19.616Z,7.87
2019-03-20T07:06:12.129Z,9.33
2019-03-20T07:09:07.594Z,8.50
2019-03-20T07:11:39.654Z,11.47
2019-03-20T07:14:09.121Z,8.37
2019-03-20T07:16:38.678Z,10.00
2019-03-20T07:19:08.547Z,12.67
2019-03-20T07:21:38.375Z,6.93
2019-03-20T07:24:07.919Z,8.53
2019-03-20T07:26:37.790Z,8.00
2019-03-20T07:29:07.387Z,8.57
2019-03-20T07:31:36.930Z,7.80
2019-03-20T07:34:06.526Z,10.03
2019-03-20T07:36:36.558Z,7.97
2019-03-20T07:39:08.748Z,7.10
2019-03-20T07:41:41.404Z,8.67
2019-03-20T07:44:11.257Z,7.27
2019-03-20T07:46:41.094Z,9.87
2019-03-20T07:49:11.218Z,6.20
2019-03-20T07:51:41.064Z,5.77
2019-03-20T07:54:10.867Z,7.00
2019-03-20T07:56:40.695Z,8.40
2019-03-20T07:59:12.108Z,7.33
2019-03-20T08:01:46.791Z,8.80
2019-03-20T08:04:23.747Z,12.47
2019-03-20T08:06:53.361Z,9.50
2019-03-20T08:09:25.505Z,6.93
2019-03-20T08:11:54.502Z,11.80
2019-03-20T08:14:24.065Z,7.20
2019-03-20T08:16:53.639Z,8.27
2019-03-20T08:19:23.270Z,9.43
2019-03-20T08:21:52.826Z,7.23
2019-03-20T08:24:23.736Z,8.93
2019-03-20T08:26:53.303Z,11.47
2019-03-20T08:29:23.186Z,6.53
2019-03-20T08:31:52.824Z,6.10
2019-03-20T08:34:22.312Z,8.77
2019-03-20T08:36:52.206Z,10.37
2019-03-20T08:39:21.746Z,6.73
2019-03-20T08:41:51.280Z,7.10
2019-03-20T08:44:20.977Z,8.07
2019-03-20T08:46:50.854Z,6.07
2019-03-20T08:49:20.729Z,6.73
2019-03-20T08:51:50.204Z,7.13
2019-03-20T08:54:19.759Z,5.90
2019-03-20T08:56:49.310Z,6.90
2019-03-20T08:59:18.850Z,8.47
2019-03-20T09:01:48.387Z,6.67
2019-03-20T09:04:17.938Z,4.97
2019-03-20T09:06:47.483Z,7.00
2019-03-20T09:09:19.601Z,7.73
2019-03-20T09:11:48.281Z,5.33
2019-03-20T09:14:17.832Z,6.77
2019-03-20T09:16:49.174Z,6.00
2019-03-20T09:19:18.642Z,6.23
2019-03-20T09:21:48.205Z,7.13
2019-03-20T09:24:18.007Z,5.67
2019-03-20T09:26:47.615Z,5.53
2019-03-20T09:29:18.736Z,5.40
2019-03-20T09:31:48.547Z,4.57
2019-03-20T09:34:18.128Z,6.07
2019-03-20T09:36:49.787Z,3.87
2019-03-20T09:39:19.328Z,6.00
2019-03-20T09:41:48.872Z,5.63
2019-03-20T09:44:19.681Z,6.37
2019-03-20T09:46:49.267Z,7.57
2019-03-20T09:49:18.816Z,5.23
2019-03-20T09:51:48.643Z,4.77
2019-03-20T09:54:18.180Z,6.77
2019-03-20T09:56:48.177Z,7.40
2019-03-20T09:59:18.069Z,3.93
2019-03-20T10:01:47.694Z,4.77
2019-03-20T10:04:17.238Z,5.57
2019-03-20T10:06:46.811Z,5.33
2019-03-20T10:09:19.308Z,7.80
2019-03-20T10:11:51.663Z,4.93
2019-03-20T10:14:21.200Z,5.00
2019-03-20T10:16:51.125Z,3.23
2019-03-20T10:19:20.677Z,8.87
2019-03-20T10:21:50.247Z,4.50
2019-03-20T10:24:20.017Z,5.43
2019-03-20T10:26:49.547Z,5.13
2019-03-20T10:29:37.538Z,5.37
2019-03-20T10:32:25.335Z,7.30
2019-03-20T10:34:54.855Z,5.83
2019-03-20T10:37:24.721Z,4.10
2019-03-20T10:39:54.294Z,6.37
2019-03-20T10:42:23.829Z,7.37
2019-03-20T10:44:53.366Z,6.17
2019-03-20T10:47:23.246Z,6.93
2019-03-20T10:49:53.162Z,6.43
2019-03-20T10:52:22.739Z,6.17
2019-03-20T10:54:52.377Z,8.10
2019-03-20T10:57:21.906Z,3.93
2019-03-20T10:59:51.437Z,5.80
2019-03-20T11:02:20.994Z,5.53
2019-03-20T11:04:50.568Z,3.50
2019-03-20T11:07:20.187Z,4.67
2019-03-20T11:09:49.734Z,4.23
2019-03-20T11:12:19.283Z,3.63
2019-03-20T11:14:48.829Z,6.23
2019-03-20T11:17:18.363Z,5.90
2019-03-20T11:19:47.925Z,3.87
2019-03-20T11:22:18.995Z,5.20
2019-03-20T11:24:48.837Z,3.70
2019-03-20T11:27:18.398Z,4.43
2019-03-20T11:29:48.203Z,3.00
2019-03-20T11:32:18.126Z,2.97
2019-03-20T11:34:48.015Z,5.60
2019-03-20T11:37:17.569Z,4.53
2019-03-20T11:39:47.177Z,7.03
2019-03-20T11:42:16.935Z,6.17
2019-03-20T11:44:46.499Z,3.70
2019-03-20T11:47:16.040Z,3.93
2019-03-20T11:49:45.626Z,4.03
2019-03-20T11:52:15.519Z,3.27
2019-03-20T11:54:45.323Z,5.17
2019-03-20T11:57:14.886Z,5.27
2019-03-20T11:59:44.435Z,3.83
2019-03-20T12:02:13.973Z,3.13
2019-03-20T12:04:43.931Z,3.37
2019-03-20T12:07:13.416Z,4.27
2019-03-20T12:09:42.990Z,2.93
2019-03-20T12:12:12.521Z,4.33
2019-03-20T12:14:42.413Z,5.40
2019-03-20T12:17:12.307Z,4.13
2019-03-20T12:19:45.134Z,2.50
2019-03-20T12:22:13.145Z,2.80
2019-03-20T12:24:42.693Z,3.40
2019-03-20T12:27:15.276Z,3.67
2019-03-20T12:29:43.519Z,3.67
2019-03-20T12:32:13.151Z,3.70
2019-03-20T12:34:42.729Z,2.30
2019-03-20T12:37:12.275Z,3.00
2019-03-20T12:39:52.589Z,4.07
2019-03-20T12:42:13.397Z,4.17
2019-03-20T12:44:43.006Z,3.83
2019-03-20T12:47:12.550Z,5.07
2019-03-20T12:49:42.084Z,3.13
2019-03-20T12:52:11.626Z,3.97
2019-03-20T12:54:41.414Z,3.17
2019-03-20T12:57:10.952Z,4.80
2019-03-20T12:59:40.518Z,3.60
2019-03-20T13:02:28.538Z,4.13
2019-03-20T13:04:58.081Z,4.17
2019-03-20T13:07:27.651Z,3.63
2019-03-20T13:10:03.178Z,3.77
2019-03-20T13:12:28.777Z,3.20
2019-03-20T13:14:58.329Z,2.10
2019-03-20T13:17:27.879Z,3.90
2019-03-20T13:19:57.715Z,3.93
2019-03-20T13:22:27.255Z,3.37
2019-03-20T13:24:56.797Z,3.20
2019-03-20T13:27:26.359Z,8.63
2019-03-20T13:29:55.898Z,3.50
2019-03-20T13:32:25.451Z,4.47
2019-03-20T13:34:54.992Z,5.00
2019-03-20T13:37:24.815Z,2.43
2019-03-20T13:39:54.357Z,2.47
2019-03-20T13:42:23.917Z,2.73
2019-03-20T13:44:53.501Z,4.60
2019-03-20T13:47:23.053Z,3.17
2019-03-20T13:49:52.610Z,3.67
2019-03-20T13:52:22.159Z,4.10
2019-03-20T13:54:51.704Z,2.47
2019-03-20T13:57:21.505Z,3.00
2019-03-20T13:59:51.415Z,3.43
2019-03-20T14:02:21.329Z,3.23
2019-03-20T14:04:50.948Z,3.47
2019-03-20T14:07:20.499Z,4.10
2019-03-20T14:09:50.068Z,3.03
2019-03-20T14:12:19.687Z,3.40
2019-03-20T14:14:49.232Z,2.50
2019-03-20T14:17:18.808Z,2.63
2019-03-20T14:19:48.342Z,6.07
2019-03-20T14:22:17.903Z,5.57
2019-03-20T14:24:47.702Z,4.03
2019-03-20T14:27:17.259Z,3.00
2019-03-20T14:29:46.806Z,4.07
2019-03-20T14:32:16.361Z,3.60
2019-03-20T14:34:45.978Z,3.73
2019-03-20T14:37:15.945Z,4.07
2019-03-20T14:39:45.509Z,5.23
2019-03-20T14:42:15.123Z,3.90
2019-03-20T14:44:44.699Z,4.13
2019-03-20T14:47:14.592Z,2.50
2019-03-20T14:49:44.136Z,2.37
2019-03-20T14:52:13.733Z,2.27
2019-03-20T14:54:43.302Z,3.83
2019-03-20T14:57:12.879Z,2.50
2019-03-20T14:59:42.430Z,2.50
2019-03-20T15:02:11.976Z,3.10
2019-03-20T15:04:41.889Z,3.00
2019-03-20T15:07:11.426Z,2.37
2019-03-20T15:09:40.983Z,4.53
2019-03-20T15:12:10.524Z,5.10
2019-03-20T15:14:40.057Z,4.37
2019-03-20T15:17:09.854Z,3.83
2019-03-20T15:19:39.682Z,3.67
2019-03-20T15:22:09.237Z,4.33
2019-03-20T15:24:38.785Z,2.40
2019-03-20T15:27:08.323Z,3.57
2019-03-20T15:29:37.852Z,3.23
2019-03-20T15:32:07.404Z,5.03
2019-03-20T15:34:37.019Z,2.30
2019-03-20T15:37:07.076Z,2.33
2019-03-20T15:39:36.613Z,4.30
2019-03-20T15:42:06.206Z,6.03
2019-03-20T15:44:35.746Z,3.03
2019-03-20T15:47:05.314Z,2.50
2019-03-20T15:49:35.197Z,2.93
2019-03-20T15:52:04.774Z,2.37
2019-03-20T15:54:34.317Z,3.70
2019-03-20T15:57:04.543Z,2.80
2019-03-20T15:59:34.443Z,2.10
2019-03-20T16:02:03.986Z,2.87
2019-03-20T16:04:33.535Z,3.77
2019-03-20T16:07:03.107Z,3.50
2019-03-20T16:09:32.664Z,4.30
2019-03-20T16:12:02.231Z,4.97
2019-03-20T16:14:32.181Z,3.60
2019-03-20T16:17:01.743Z,2.57
2019-03-20T16:19:31.264Z,2.93
2019-03-20T16:22:00.814Z,2.40
2019-03-20T16:24:30.375Z,3.27
2019-03-20T16:26:59.924Z,3.80
2019-03-20T16:29:29.677Z,3.57
2019-03-20T16:31:59.241Z,2.27
2019-03-20T16:34:28.815Z,2.53
2019-03-20T16:36:58.373Z,4.70
2019-03-20T16:39:27.924Z,3.00
2019-03-20T16:41:57.459Z,2.87
2019-03-20T16:44:27.009Z,2.97
2019-03-20T16:46:56.565Z,2.20
2019-03-20T16:49:26.133Z,4.03
2019-03-20T16:51:55.674Z,1.73
2019-03-20T16:54:25.228Z,2.60
2019-03-20T16:56:55.049Z,1.80
2019-03-20T16:59:24.619Z,1.67
2019-03-20T17:01:54.153Z,3.43
2019-03-20T17:04:23.696Z,1.80
2019-03-20T17:06:53.270Z,5.20
2019-03-20T17:09:23.143Z,1.80
2019-03-20T17:11:52.993Z,2.40
2019-03-20T17:14:22.559Z,2.27
2019-03-20T17:16:52.154Z,1.83
2019-03-20T17:19:21.801Z,1.70
2019-03-20T17:21:51.336Z,3.80
2019-03-20T17:24:20.969Z,1.93
2019-03-20T17:26:50.531Z,3.20
2019-03-20T17:29:20.157Z,3.13
2019-03-20T17:31:49.718Z,2.23
2019-03-20T17:34:19.506Z,3.27
2019-03-20T17:36:49.068Z,1.83
2019-03-20T17:39:18.616Z,2.17
2019-03-20T17:41:48.468Z,2.53
2019-03-20T17:44:18.026Z,2.70
2019-03-20T17:46:47.591Z,1.80
2019-03-20T17:49:17.505Z,2.27
2019-03-20T17:51:47.296Z,1.70
2019-03-20T17:54:17.125Z,2.63
2019-03-20T17:56:46.684Z,3.20
2019-03-20T17:59:16.242Z,1.60
2019-03-20T18:01:45.804Z,1.97
2019-03-20T18:04:15.373Z,2.70
2019-03-20T18:06:44.926Z,2.40
2019-03-20T18:09:15.310Z,2.83
2019-03-20T18:11:47.621Z,4.27
2019-03-20T18:14:16.578Z,3.03
2019-03-20T18:16:46.388Z,2.53
2019-03-20T18:19:16.111Z,5.43
2019-03-20T18:21:45.672Z,2.70
2019-03-20T18:24:15.249Z,6.47
2019-03-20T18:26:44.818Z,4.07
2019-03-20T18:29:14.382Z,2.53
2019-03-20T18:31:46.394Z,3.33
2019-03-20T18:34:17.357Z,3.40
2019-03-20T18:36:46.855Z,5.10
2019-03-20T18:39:16.455Z,9.00
2019-03-20T18:41:46.008Z,5.90
2019-03-20T18:44:16.926Z,7.30
2019-03-20T18:46:46.814Z,7.87
2019-03-20T18:49:19.501Z,10.03
2019-03-20T18:51:49.057Z,17.97
2019-03-20T18:54:18.617Z,14.57
2019-03-20T18:56:48.514Z,19.87
2019-03-20T18:59:18.082Z,21.97
2019-03-20T19:01:47.922Z,19.57
2019-03-20T19:04:17.468Z,22.03
2019-03-20T19:06:47.333Z,22.03
2019-03-20T19:09:19.242Z,23.13
2019-03-20T19:11:48.877Z,28.80
2019-03-20T19:14:18.430Z,23.00
2019-03-20T19:16:47.986Z,31.47
2019-03-20T19:19:17.844Z,31.93
2019-03-20T19:21:47.416Z,30.93
2019-03-20T19:24:16.971Z,29.90
2019-03-20T19:26:46.858Z,41.23
2019-03-20T19:29:16.422Z,39.17
2019-03-20T19:31:45.998Z,38.03
2019-03-20T19:34:15.566Z,33.03
2019-03-20T19:36:45.140Z,38.33
2019-03-20T19:39:14.710Z,42.33
2019-03-20T19:41:44.258Z,38.97
2019-03-20T19:44:13.869Z,34.33
2019-03-20T19:46:43.713Z,33.60
2019-03-20T19:49:13.275Z,37.13
2019-03-20T19:51:42.828Z,37.20
2019-03-20T19:54:14.078Z,35.57
2019-03-20T19:56:43.669Z,34.93
2019-03-20T19:59:13.478Z,41.17
2019-03-20T20:01:43.053Z,36.30
2019-03-20T20:04:14.594Z,38.90
2019-03-20T20:06:46.032Z,33.07
2019-03-20T20:09:17.491Z,30.07
2019-03-20T20:11:47.177Z,32.40
2019-03-20T20:14:16.749Z,36.20
2019-03-20T20:16:46.303Z,35.50
2019-03-20T20:19:16.199Z,38.50
2019-03-20T20:21:45.770Z,30.53
2019-03-20T20:24:18.223Z,31.07
2019-03-20T20:26:47.875Z,31.47
2019-03-20T20:29:22.082Z,27.93
2019-03-20T20:31:52.829Z,25.23
2019-03-20T20:34:29.859Z,32.10
2019-03-20T20:36:59.450Z,30.27
2019-03-20T20:39:29.005Z,25.53
2019-03-20T20:41:58.582Z,26.23
2019-03-20T20:44:28.168Z,23.53
2019-03-20T20:46:57.746Z,22.27
2019-03-20T20:49:27.336Z,24.73
2019-03-20T20:51:56.896Z,22.77
2019-03-20T20:54:26.474Z,22.30
2019-03-20T20:56:56.087Z,18.20
2019-03-20T20:59:25.662Z,20.93
2019-03-20T21:01:55.210Z,17.20
2019-03-20T21:04:25.147Z,18.13
2019-03-20T21:06:54.679Z,19.37
2019-03-20T21:09:24.270Z,18.50
2019-03-20T21:11:53.857Z,17.80
2019-03-20T21:14:23.412Z,15.20
2019-03-20T21:16:53.581Z,17.57
2019-03-20T21:19:39.855Z,13.87
2019-03-20T21:22:48.990Z,15.17
2019-03-20T21:25:20.769Z,13.53
2019-03-20T21:28:50.384Z,14.03
2019-03-20T21:31:33.722Z,13.40
2019-03-20T21:34:54.035Z,13.53
2019-03-20T21:38:03.432Z,12.40
2019-03-20T21:41:02.575Z,14.07
2019-03-20T21:44:06.215Z,13.60
2019-03-20T21:47:03.919Z,11.57
2019-03-20T21:49:34.085Z,12.13
2019-03-20T21:52:04.270Z,12.37
2019-03-20T21:55:05.459Z,11.50
2019-03-20T21:58:00.622Z,12.27
2019-03-20T22:01:06.547Z,10.93
2019-03-20T22:03:36.695Z,11.57
2019-03-20T22:06:43.177Z,10.37
2019-03-20T22:09:34.857Z,13.17
2019-03-20T22:12:35.138Z,10.73
2019-03-20T22:15:22.423Z,9.50
2019-03-20T22:18:25.064Z,10.77
2019-03-20T22:21:11.024Z,10.60
2019-03-20T22:24:07.454Z,10.60
2019-03-20T22:27:27.622Z,10.20
2019-03-20T22:29:57.700Z,9.77
2019-03-20T22:33:26.479Z,9.40
2019-03-20T22:36:09.198Z,8.30
2019-03-20T22:39:29.461Z,10.00
2019-03-20T22:42:25.062Z,8.07
2019-03-20T22:45:21.582Z,9.13
2019-03-20T22:48:29.720Z,7.20
2019-03-20T22:51:24.266Z,6.67
2019-03-20T22:54:45.924Z,9.80
2019-03-20T22:58:01.712Z,9.13
2019-03-20T23:00:34.868Z,6.77
2019-03-20T23:03:10.347Z,7.67
2019-03-20T23:05:40.753Z,6.07
2019-03-20T23:08:16.733Z,8.50
2019-03-20T23:10:48.766Z,8.60
2019-03-20T23:13:19.529Z,6.53
2019-03-20T23:15:50.297Z,6.80
2019-03-20T23:18:20.443Z,7.87
2019-03-20T23:20:50.518Z,6.83
2019-03-20T23:23:20.596Z,7.00
2019-03-20T23:25:50.934Z,4.93
2019-03-20T23:28:21.332Z,6.70
2019-03-20T23:30:51.793Z,4.30
2019-03-20T23:33:21.948Z,6.50
2019-03-20T23:35:52.038Z,7.93
2019-03-20T23:38:22.120Z,6.77
2019-03-20T23:40:52.223Z,6.00
2019-03-20T23:43:22.413Z,3.93
2019-03-20T23:45:52.491Z,6.00
2019-03-20T23:49:13.503Z,5.93
2019-03-20T23:51:43.578Z,6.03
2019-03-20T23:54:15.775Z,7.37
2019-03-20T23:56:45.879Z,4.63
2019-03-20T23:59:16.243Z,4.50
